Time;durP1;ratioP1;P1;durP2;ratioP2;P2;SDS_P1;SDS_P2;PMS_P1;PMS_P2;Temp;Humidity;BMP_temperature;BMP_pressure;BME280_temperature;BME280_humidity;BME280_pressure;Samples;Min_cycle;Max_cycle;Signal;HPM_P1;HPM_P2
2023/06/11 00:00:35;;;;;;;13.50;5.80;;;;;;;;;;5014430;28;20513;-92
2023/06/11 00:03:23;;;;;;;8.65;5.13;;;;;;;;;;4974096;28;20057;-93
2023/06/11 00:06:08;;;;;;;9.05;5.10;;;;;;;;;;4985466;28;20049;-94
2023/06/11 00:08:54;;;;;;;13.77;6.40;;;;;;;;;;5004161;28;20436;-93
2023/06/11 00:11:48;;;;;;;13.00;6.35;;;;;;;;;;5014040;28;20057;-94
2023/06/11 00:14:33;;;;;;;13.88;5.80;;;;;;;;;;4999000;28;20037;-93
2023/06/11 00:17:17;;;;;;;9.90;6.00;;;;;;;;;;4986199;28;20064;-92
2023/06/11 00:20:10;;;;;;;12.63;6.28;;;;;;;;;;4999825;28;20049;-93
2023/06/11 00:22:57;;;;;;;11.23;5.53;;;;;;;;;;4999617;28;20113;-94
2023/06/11 00:25:44;;;;;;;10.43;6.25;;;;;;;;;;4999151;28;20120;-96
2023/06/11 00:28:29;;;;;;;9.98;6.22;;;;;;;;;;5010512;28;20080;-91
2023/06/11 00:31:23;;;;;;;10.95;6.30;;;;;;;;;;4999948;28;20509;-94
2023/06/11 00:34:08;;;;;;;11.77;5.57;;;;;;;;;;4993869;28;20040;-94
2023/06/11 00:36:55;;;;;;;10.57;5.90;;;;;;;;;;4998966;28;20061;-94
2023/06/11 00:39:40;;;;;;;12.88;6.97;;;;;;;;;;4999335;28;20040;-95
2023/06/11 00:42:24;;;;;;;12.00;7.60;;;;;;;;;;5014869;28;20059;-94
2023/06/11 00:45:13;;;;;;;12.05;6.03;;;;;;;;;;4999750;28;20394;-93
2023/06/11 00:48:00;;;;;;;10.65;7.00;;;;;;;;;;4998934;28;20037;-94
2023/06/11 00:50:48;;;;;;;11.50;6.53;;;;;;;;;;5013358;28;20060;-93
2023/06/11 00:53:35;;;;;;;8.77;5.70;;;;;;;;;;4998700;28;20109;-92
2023/06/11 00:56:20;;;;;;;8.70;5.85;;;;;;;;;;4998698;28;20088;-94
2023/06/11 00:59:06;;;;;;;10.05;6.05;;;;;;;;;;4988159;28;20114;-94
2023/06/11 01:02:02;;;;;;;11.40;6.47;;;;;;;;;;5012894;28;20846;-94
2023/06/11 01:04:48;;;;;;;10.65;6.40;;;;;;;;;;4997645;28;20128;-94
2023/06/11 01:07:35;;;;;;;17.48;7.15;;;;;;;;;;4998511;28;20045;-92
2023/06/11 01:10:26;;;;;;;22.35;7.35;;;;;;;;;;4998636;28;20044;-93
2023/06/11 01:13:11;;;;;;;13.60;7.03;;;;;;;;;;4998829;28;20397;-93
2023/06/11 01:16:02;;;;;;;10.85;6.60;;;;;;;;;;5013009;28;20037;-94
2023/06/11 01:19:03;;;;;;;9.98;6.13;;;;;;;;;;5012868;28;20044;-94
2023/06/11 01:21:53;;;;;;;9.80;6.00;;;;;;;;;;4998371;28;20131;-94
2023/06/11 01:24:44;;;;;;;10.27;6.25;;;;;;;;;;5004031;28;20391;-94
2023/06/11 01:27:40;;;;;;;9.73;6.63;;;;;;;;;;5009008;28;20092;-94
2023/06/11 01:30:25;;;;;;;9.40;6.90;;;;;;;;;;5013172;28;20142;-94
2023/06/11 01:33:13;;;;;;;10.07;6.72;;;;;;;;;;5013233;28;20068;-94
2023/06/11 01:36:00;;;;;;;11.48;7.18;;;;;;;;;;4993562;28;20228;-95
2023/06/11 01:38:45;;;;;;;12.48;6.88;;;;;;;;;;5006110;28;20044;-93
2023/06/11 01:41:31;;;;;;;7.85;6.10;;;;;;;;;;4972851;28;20057;-95
2023/06/11 01:44:19;;;;;;;13.77;6.97;;;;;;;;;;5013118;28;20091;-96
2023/06/11 01:47:04;;;;;;;11.55;7.05;;;;;;;;;;4986795;28;20036;-95
2023/06/11 01:49:50;;;;;;;10.32;6.45;;;;;;;;;;4983999;28;20073;-93
2023/06/11 01:52:35;;;;;;;9.32;7.78;;;;;;;;;;4984462;28;20088;-94
2023/06/11 01:55:23;;;;;;;11.20;7.15;;;;;;;;;;4999696;28;20052;-94
2023/06/11 01:58:07;;;;;;;9.85;6.47;;;;;;;;;;5006854;28;20122;-95
2023/06/11 02:01:02;;;;;;;11.02;6.85;;;;;;;;;;5008128;28;20148;-94
2023/06/11 02:03:49;;;;;;;11.15;6.80;;;;;;;;;;5014575;28;20091;-94
2023/06/11 02:06:37;;;;;;;9.65;6.57;;;;;;;;;;5002795;28;20036;-94
2023/06/11 02:09:24;;;;;;;10.63;6.70;;;;;;;;;;5016711;28;20117;-93
2023/06/11 02:12:09;;;;;;;10.88;6.40;;;;;;;;;;4998970;28;20045;-94
2023/06/11 02:14:54;;;;;;;8.77;6.88;;;;;;;;;;4997431;28;20082;-94
2023/06/11 02:17:39;;;;;;;8.45;7.53;;;;;;;;;;4972414;28;20125;-94
2023/06/11 02:20:26;;;;;;;9.68;6.63;;;;;;;;;;4997639;28;20119;-95
2023/06/11 02:23:11;;;;;;;10.77;7.05;;;;;;;;;;4997847;28;20137;-93
2023/06/11 02:25:58;;;;;;;10.98;6.85;;;;;;;;;;4997161;28;20529;-94
2023/06/11 02:28:45;;;;;;;9.88;7.63;;;;;;;;;;5012419;28;20037;-93
2023/06/11 02:31:30;;;;;;;8.23;6.60;;;;;;;;;;4997895;28;20045;-95
2023/06/11 02:34:17;;;;;;;11.63;7.53;;;;;;;;;;4983775;28;20127;-94
2023/06/11 02:37:02;;;;;;;10.40;7.75;;;;;;;;;;4997385;28;20117;-96
2023/06/11 02:39:48;;;;;;;11.43;7.05;;;;;;;;;;4997468;28;20080;-91
2023/06/11 02:42:41;;;;;;;9.15;6.93;;;;;;;;;;4997507;28;20040;-95
2023/06/11 02:45:26;;;;;;;10.70;7.40;;;;;;;;;;4984496;28;20057;-96
2023/06/11 02:48:10;;;;;;;10.13;7.82;;;;;;;;;;4994157;28;20442;-94
2023/06/11 02:50:57;;;;;;;8.82;7.38;;;;;;;;;;4995223;28;20069;-95
2023/06/11 02:53:45;;;;;;;10.68;8.13;;;;;;;;;;5012521;28;20069;-95
2023/06/11 02:56:30;;;;;;;10.13;7.78;;;;;;;;;;5012281;28;20492;-94
2023/06/11 02:59:14;;;;;;;10.48;7.80;;;;;;;;;;4997704;28;20044;-94
2023/06/11 03:02:01;;;;;;;11.88;7.75;;;;;;;;;;4996903;28;20045;-95
2023/06/11 03:04:52;;;;;;;8.77;7.22;;;;;;;;;;4985060;28;20072;-95
2023/06/11 03:07:39;;;;;;;13.20;8.40;;;;;;;;;;4997064;28;20040;-94
2023/06/11 03:10:27;;;;;;;9.30;7.38;;;;;;;;;;4997493;28;20508;-94
2023/06/11 03:13:20;;;;;;;9.40;7.68;;;;;;;;;;4997402;28;20464;-94
2023/06/11 03:16:07;;;;;;;10.25;7.90;;;;;;;;;;4997143;28;20041;-93
2023/06/11 03:18:54;;;;;;;10.43;7.68;;;;;;;;;;4997155;28;20040;-94
2023/06/11 03:21:47;;;;;;;12.43;8.27;;;;;;;;;;4997211;28;20505;-95
2023/06/11 03:24:31;;;;;;;12.15;8.55;;;;;;;;;;4984340;28;20178;-95
2023/06/11 03:27:18;;;;;;;16.25;9.02;;;;;;;;;;4997793;28;20036;-93
2023/06/11 03:30:04;;;;;;;13.32;7.85;;;;;;;;;;5000306;28;20096;-94
2023/06/11 03:32:48;;;;;;;10.35;8.27;;;;;;;;;;5000922;28;20536;-94
2023/06/11 03:35:38;;;;;;;12.75;8.30;;;;;;;;;;5000882;28;20045;-93
2023/06/11 03:38:23;;;;;;;12.23;8.25;;;;;;;;;;5015285;28;20117;-94
2023/06/11 03:41:08;;;;;;;13.02;8.27;;;;;;;;;;5000159;28;20053;-92
2023/06/11 03:43:55;;;;;;;11.15;8.75;;;;;;;;;;4987265;28;20084;-92
2023/06/11 03:46:39;;;;;;;11.93;8.52;;;;;;;;;;5000388;28;20120;-94
2023/06/11 03:49:26;;;;;;;12.85;8.07;;;;;;;;;;5000216;28;20559;-94
2023/06/11 03:52:13;;;;;;;10.98;8.60;;;;;;;;;;5000477;28;20052;-95
2023/06/11 03:54:58;;;;;;;11.32;8.45;;;;;;;;;;5015378;28;20689;-95
2023/06/11 03:57:45;;;;;;;11.52;9.00;;;;;;;;;;5015336;28;20096;-94
2023/06/11 04:00:32;;;;;;;12.23;8.98;;;;;;;;;;5000604;28;20061;-96
2023/06/11 04:03:20;;;;;;;10.93;9.02;;;;;;;;;;4986748;28;20048;-94
2023/06/11 04:06:04;;;;;;;12.52;9.20;;;;;;;;;;5014752;28;20044;-95
2023/06/11 04:08:50;;;;;;;12.55;9.80;;;;;;;;;;5000398;28;20128;-94
2023/06/11 04:11:37;;;;;;;11.40;9.25;;;;;;;;;;5000494;28;20588;-94
2023/06/11 04:14:29;;;;;;;9.68;8.68;;;;;;;;;;5000779;28;20053;-93
2023/06/11 04:17:14;;;;;;;14.13;10.02;;;;;;;;;;5000400;28;20110;-96
2023/06/11 04:20:02;;;;;;;12.85;9.18;;;;;;;;;;5000235;28;20164;-92
2023/06/11 04:22:46;;;;;;;13.00;9.25;;;;;;;;;;5000628;28;20497;-94
2023/06/11 04:25:31;;;;;;;16.33;9.10;;;;;;;;;;5001908;28;20036;-95
2023/06/11 04:28:16;;;;;;;15.25;9.60;;;;;;;;;;4988520;28;20116;-94
2023/06/11 04:31:01;;;;;;;14.70;8.80;;;;;;;;;;5000619;28;20417;-92
2023/06/11 04:33:50;;;;;;;11.65;9.63;;;;;;;;;;5015349;28;20072;-94
2023/06/11 04:36:40;;;;;;;13.35;9.95;;;;;;;;;;5000528;28;20037;-93
2023/06/11 04:39:26;;;;;;;12.55;8.95;;;;;;;;;;5016244;28;20124;-94
2023/06/11 04:42:14;;;;;;;11.68;10.23;;;;;;;;;;5002911;28;20875;-95
2023/06/11 04:44:59;;;;;;;13.05;9.32;;;;;;;;;;4987906;28;20782;-95
2023/06/11 04:47:43;;;;;;;13.25;9.85;;;;;;;;;;5001180;28;20504;-95
2023/06/11 04:50:30;;;;;;;12.52;9.88;;;;;;;;;;5014445;28;20068;-94
2023/06/11 04:53:21;;;;;;;13.32;10.05;;;;;;;;;;5014185;28;20044;-94
2023/06/11 04:56:12;;;;;;;15.13;9.43;;;;;;;;;;4999132;28;20033;-95
2023/06/11 04:59:05;;;;;;;11.00;9.70;;;;;;;;;;4999377;28;20385;-96
2023/06/11 05:01:53;;;;;;;12.20;9.80;;;;;;;;;;4999193;28;20084;-93
2023/06/11 05:04:38;;;;;;;13.20;9.90;;;;;;;;;;4993507;28;20398;-93
2023/06/11 05:07:43;;;;;;;13.75;9.75;;;;;;;;;;5007829;28;20045;-94
2023/06/11 05:10:30;;;;;;;12.35;9.55;;;;;;;;;;5001450;28;20088;-93
2023/06/11 05:13:15;;;;;;;14.10;9.65;;;;;;;;;;4994433;28;20072;-94
2023/06/11 05:16:09;;;;;;;12.18;9.57;;;;;;;;;;5004987;28;20041;-95
2023/06/11 05:18:54;;;;;;;11.73;9.73;;;;;;;;;;4996536;28;20540;-96
2023/06/11 05:21:39;;;;;;;12.80;10.30;;;;;;;;;;5001331;28;20069;-95
2023/06/11 05:24:29;;;;;;;11.25;9.00;;;;;;;;;;4999183;28;20532;-95
2023/06/11 05:27:14;;;;;;;17.33;9.57;;;;;;;;;;4997902;28;20029;-94
2023/06/11 05:30:05;;;;;;;10.50;9.38;;;;;;;;;;4998997;28;20084;-94
2023/06/11 05:32:51;;;;;;;14.57;9.70;;;;;;;;;;5000161;28;20080;-95
2023/06/11 05:35:36;;;;;;;10.40;8.93;;;;;;;;;;5013654;28;20084;-94
2023/06/11 05:38:21;;;;;;;14.65;9.10;;;;;;;;;;5002162;28;20036;-94
2023/06/11 05:41:06;;;;;;;13.02;8.88;;;;;;;;;;4998617;28;20048;-95
2023/06/11 05:43:51;;;;;;;15.68;9.07;;;;;;;;;;4999876;28;20461;-95
2023/06/11 05:46:36;;;;;;;11.90;9.52;;;;;;;;;;4997179;28;20029;-95
2023/06/11 05:49:22;;;;;;;13.23;8.68;;;;;;;;;;5004444;28;20068;-94
2023/06/11 05:52:07;;;;;;;16.15;10.48;;;;;;;;;;4994851;28;20079;-93
2023/06/11 05:54:55;;;;;;;10.57;8.98;;;;;;;;;;4999047;28;20451;-95
2023/06/11 05:57:42;;;;;;;10.85;8.20;;;;;;;;;;4995661;28;20195;-94
2023/06/11 06:00:28;;;;;;;10.73;8.23;;;;;;;;;;5000752;28;20065;-95
2023/06/11 06:03:16;;;;;;;10.25;8.25;;;;;;;;;;4998806;28;20041;-92
2023/06/11 06:06:01;;;;;;;11.85;7.50;;;;;;;;;;5017012;28;20036;-94
2023/06/11 06:08:46;;;;;;;13.40;8.27;;;;;;;;;;4990430;28;20122;-93
2023/06/11 06:11:30;;;;;;;12.25;8.65;;;;;;;;;;5016515;28;20048;-96
2023/06/11 06:14:15;;;;;;;13.68;8.65;;;;;;;;;;5007461;28;20053;-94
2023/06/11 06:17:05;;;;;;;8.52;7.38;;;;;;;;;;5020322;28;20017;-96
2023/06/11 06:19:50;;;;;;;9.32;7.70;;;;;;;;;;5009152;28;20032;-95
2023/06/11 06:22:41;;;;;;;14.23;8.07;;;;;;;;;;5003209;28;20044;-95
2023/06/11 06:25:31;;;;;;;9.55;7.50;;;;;;;;;;5010513;28;20041;-95
2023/06/11 06:28:17;;;;;;;9.95;7.45;;;;;;;;;;5008024;28;20060;-94
2023/06/11 06:31:09;;;;;;;10.88;7.85;;;;;;;;;;5022335;28;20044;-96
2023/06/11 06:33:54;;;;;;;13.45;7.97;;;;;;;;;;5010407;28;20041;-96
2023/06/11 06:36:39;;;;;;;9.07;7.53;;;;;;;;;;5002324;28;20053;-92
2023/06/11 06:39:31;;;;;;;10.35;7.03;;;;;;;;;;4996356;28;20037;-91
2023/06/11 06:42:15;;;;;;;10.63;7.03;;;;;;;;;;4983490;28;20092;-91
2023/06/11 06:45:00;;;;;;;12.75;7.55;;;;;;;;;;5003040;28;20037;-94
2023/06/11 06:47:56;;;;;;;12.48;7.32;;;;;;;;;;4993908;28;20049;-95
2023/06/11 06:50:51;;;;;;;9.13;7.47;;;;;;;;;;5028880;28;20036;-95
2023/06/11 06:53:46;;;;;;;9.40;6.80;;;;;;;;;;5012562;28;20041;-95
2023/06/11 06:56:38;;;;;;;9.35;6.65;;;;;;;;;;4994389;28;20045;-95
2023/06/11 06:59:32;;;;;;;13.57;7.68;;;;;;;;;;4994622;28;20057;-93
2023/06/11 07:02:17;;;;;;;9.40;7.10;;;;;;;;;;5015416;28;20092;-94
2023/06/11 07:05:12;;;;;;;13.60;7.57;;;;;;;;;;5429339;22;20102;-95
2023/06/11 07:08:20;;;;;;;9.60;6.28;;;;;;;;;;5010218;28;20105;-96
2023/06/11 07:11:08;;;;;;;8.05;7.03;;;;;;;;;;5322002;22;20060;-95
2023/06/11 07:13:59;;;;;;;9.15;7.00;;;;;;;;;;5052348;28;20045;-92
2023/06/11 07:16:43;;;;;;;13.00;7.30;;;;;;;;;;5167816;23;20024;-93
2023/06/11 07:19:29;;;;;;;8.23;6.75;;;;;;;;;;5112211;23;20050;-94
2023/06/11 07:22:16;;;;;;;8.50;7.20;;;;;;;;;;4993828;28;20632;-96
2023/06/11 07:25:01;;;;;;;8.55;7.25;;;;;;;;;;5367303;23;20103;-93
2023/06/11 07:27:48;;;;;;;9.15;7.60;;;;;;;;;;5018291;28;20137;-96
2023/06/11 07:30:33;;;;;;;9.65;6.65;;;;;;;;;;5031467;28;20251;-96
2023/06/11 07:33:20;;;;;;;8.60;6.45;;;;;;;;;;5007553;28;20045;-96
2023/06/11 07:36:05;;;;;;;8.82;6.97;;;;;;;;;;5036157;28;20041;-91
2023/06/11 07:38:57;;;;;;;8.98;6.55;;;;;;;;;;5021121;28;20060;-95
2023/06/11 07:41:45;;;;;;;8.07;6.90;;;;;;;;;;5028188;28;20088;-96
2023/06/11 07:44:30;;;;;;;8.93;6.32;;;;;;;;;;5023655;28;20092;-95
2023/06/11 07:47:17;;;;;;;9.52;6.80;;;;;;;;;;5046967;28;20028;-95
2023/06/11 07:50:11;;;;;;;8.18;6.80;;;;;;;;;;5034894;28;20040;-95
2023/06/11 07:52:58;;;;;;;12.23;6.57;;;;;;;;;;5047175;28;20460;-94
2023/06/11 07:55:56;;;;;;;9.25;6.50;;;;;;;;;;5014346;28;20500;-96
2023/06/11 07:59:00;;;;;;;9.57;6.88;;;;;;;;;;5006575;28;20143;-95
2023/06/11 08:01:47;;;;;;;8.75;5.95;;;;;;;;;;5009125;28;20378;-95
2023/06/11 08:04:33;;;;;;;7.50;6.50;;;;;;;;;;5032729;28;20047;-96
2023/06/11 08:07:17;;;;;;;10.00;6.55;;;;;;;;;;5039432;28;20048;-94
2023/06/11 08:10:02;;;;;;;11.05;6.63;;;;;;;;;;5021843;28;20528;-95
2023/06/11 08:12:58;;;;;;;9.68;6.22;;;;;;;;;;5031891;28;20048;-94
2023/06/11 08:15:45;;;;;;;13.07;7.05;;;;;;;;;;5016451;28;20033;-93
2023/06/11 08:18:32;;;;;;;10.20;6.38;;;;;;;;;;5014268;28;20044;-90
2023/06/11 08:21:17;;;;;;;10.77;6.50;;;;;;;;;;5016680;28;20110;-96
2023/06/11 08:24:01;;;;;;;9.02;6.50;;;;;;;;;;5011238;28;20112;-96
2023/06/11 08:26:48;;;;;;;8.20;6.95;;;;;;;;;;5013231;28;20100;-94
2023/06/11 08:29:33;;;;;;;10.32;6.07;;;;;;;;;;5003327;28;20445;-94
2023/06/11 08:32:18;;;;;;;8.65;6.35;;;;;;;;;;5015094;28;20068;-95
2023/06/11 08:35:03;;;;;;;10.27;5.97;;;;;;;;;;5011062;28;20049;-96
2023/06/11 08:37:50;;;;;;;8.13;6.28;;;;;;;;;;5020427;28;20084;-96
2023/06/11 08:43:24;;;;;;;8.10;6.80;;;;;;;;;;5311562;23;20046;-93
2023/06/11 08:46:15;;;;;;;7.57;6.15;;;;;;;;;;5086214;23;20056;-94
2023/06/11 08:49:05;;;;;;;9.23;6.35;;;;;;;;;;5028828;28;20045;-92
2023/06/11 08:51:53;;;;;;;7.63;5.75;;;;;;;;;;5038750;23;20061;-94
2023/06/11 08:54:38;;;;;;;10.65;6.00;;;;;;;;;;4997187;28;20501;-95
2023/06/11 08:57:25;;;;;;;8.32;5.78;;;;;;;;;;4979181;28;20046;-95
2023/06/11 09:00:10;;;;;;;12.75;5.80;;;;;;;;;;4985606;28;20099;-95
2023/06/11 09:02:55;;;;;;;9.60;6.15;;;;;;;;;;4995117;28;20042;-95
2023/06/11 09:05:42;;;;;;;9.95;6.35;;;;;;;;;;4983400;28;20037;-95
2023/06/11 09:08:27;;;;;;;10.10;5.35;;;;;;;;;;4998175;28;20041;-92
2023/06/11 09:11:15;;;;;;;7.40;5.45;;;29.10;80.00;;;;;;4987961;28;20041;-93
2023/06/11 09:13:59;;;;;;;11.05;5.97;;;;;;;;;;4995683;28;20044;-94
2023/06/11 09:16:46;;;;;;;10.75;5.78;;;;;;;;;;4997016;28;20050;-95
2023/06/11 09:19:31;;;;;;;9.02;5.35;;;;;;;;;;4982479;28;20107;-92
2023/06/11 09:22:28;;;;;;;8.68;5.50;;;;;;;;;;4968557;28;20105;-95
2023/06/11 09:25:18;;;;;;;8.18;5.22;;;;;;;;;;4978915;28;20026;-95
2023/06/11 09:28:06;;;;;;;7.47;5.25;;;;;;;;;;5002875;28;20045;-95
2023/06/11 09:30:56;;;;;;;9.43;5.20;;;;;;;;;;4984824;28;20502;-95
2023/06/11 09:33:45;;;;;;;11.02;5.57;;;;;;;;;;4986487;28;20041;-90
2023/06/11 09:36:32;;;;;;;6.55;5.55;;;;;;;;;;5072610;23;20513;-96
2023/06/11 09:39:19;;;;;;;7.53;5.32;;;;;;;;;;5004869;28;20041;-92
2023/06/11 09:42:04;;;;;;;8.25;4.95;;;;;;;;;;5001534;28;20137;-96
2023/06/11 09:44:51;;;;;;;8.00;5.22;;;;;;;;;;5002225;28;20104;-93
2023/06/11 09:47:40;;;;;;;7.97;5.00;;;;;;;;;;4984392;28;20065;-94
2023/06/11 09:50:25;;;;;;;6.00;4.78;;;;;;;;;;4998857;28;20453;-96
2023/06/11 09:53:10;;;;;;;8.50;4.80;;;30.30;70.10;;;;;;4979989;28;20049;-96
2023/06/11 09:55:55;;;;;;;6.15;4.93;;;;;;;;;;4993212;28;20049;-95
2023/06/11 09:58:40;;;;;;;6.05;5.07;;;;;;;;;;4991405;28;20041;-93
2023/06/11 10:01:26;;;;;;;9.57;5.30;;;30.60;68.50;;;;;;4994573;28;20544;-95
2023/06/11 10:04:13;;;;;;;8.90;5.10;;;;;;;;;;4994907;28;20040;-94
2023/06/11 10:06:57;;;;;;;7.18;4.97;;;;;;;;;;4993977;28;20072;-91
2023/06/11 10:09:43;;;;;;;6.47;5.35;;;;;;;;;;4982717;28;20076;-90
2023/06/11 10:12:33;;;;;;;7.57;4.95;;;;;;;;;;4990851;28;20498;-94
2023/06/11 10:15:18;;;;;;;7.68;4.45;;;;;;;;;;4987808;28;20594;-95
2023/06/11 10:18:12;;;;;;;5.85;4.90;;;;;;;;;;4986109;28;20260;-95
2023/06/11 10:21:00;;;;;;;7.50;4.88;;;;;;;;;;4989999;28;20077;-94
2023/06/11 10:23:51;;;;;;;8.90;5.00;;;30.80;65.30;;;;;;4994823;28;20049;-90
2023/06/11 10:26:35;;;;;;;7.85;5.13;;;30.80;65.60;;;;;;4989885;28;20065;-93
2023/06/11 10:29:25;;;;;;;12.23;6.43;;;30.90;64.90;;;;;;4979539;28;20045;-93
2023/06/11 10:32:20;;;;;;;6.25;4.80;;;;;;;;;;4985517;28;20124;-91
2023/06/11 10:35:07;;;;;;;5.97;4.90;;;;;;;;;;4988730;28;20103;-94
2023/06/11 10:38:02;;;;;;;8.73;5.50;;;;;;;;;;4982434;28;20121;-92
2023/06/11 10:40:48;;;;;;;7.28;4.68;;;;;;;;;;5000758;28;20093;-90
2023/06/11 10:43:40;;;;;;;6.88;4.55;;;;;;;;;;5002637;28;20093;-95
2023/06/11 10:46:25;;;;;;;5.80;4.57;;;;;;;;;;5001708;28;20061;-94
2023/06/11 10:49:17;;;;;;;7.53;4.80;;;;;;;;;;4995239;28;20057;-94
2023/06/11 10:52:04;;;;;;;5.85;4.68;;;;;;;;;;4997874;28;20048;-94
2023/06/11 10:54:51;;;;;;;9.20;4.82;;;;;;;;;;4994326;28;20059;-93
2023/06/11 10:57:35;;;;;;;6.32;4.70;;;;;;;;;;4994849;28;20034;-93
2023/06/11 11:00:21;;;;;;;7.45;4.65;;;;;;;;;;4996849;28;20529;-93
2023/06/11 11:03:06;;;;;;;5.95;4.90;;;;;;;;;;4996288;28;20069;-95
2023/06/11 11:05:53;;;;;;;8.18;4.60;;;;;;;;;;4994109;28;20509;-95
2023/06/11 11:08:38;;;;;;;7.18;4.82;;;;;;;;;;5000072;28;20057;-93
2023/06/11 11:11:23;;;;;;;8.55;4.63;;;;;;;;;;4994793;28;20136;-94
2023/06/11 11:14:08;;;;;;;8.85;4.47;;;;;;;;;;4998299;28;20852;-95
2023/06/11 11:16:52;;;;;;;6.55;4.20;;;;;;;;;;4998610;28;20057;-89
2023/06/11 11:19:40;;;;;;;6.00;4.50;;;;;;;;;;5004865;28;20110;-94
2023/06/11 11:22:31;;;;;;;5.78;4.40;;;;;;;;;;5009325;28;20049;-89
2023/06/11 11:25:17;;;;;;;7.18;4.57;;;;;;;;;;5008003;28;20069;-91
2023/06/11 11:28:01;;;;;;;6.05;4.30;;;;;;;;;;5000375;28;20041;-91
2023/06/11 11:30:46;;;;;;;6.80;4.25;;;;;;;;;;5010533;28;20042;-92
2023/06/11 11:33:34;;;;;;;6.28;3.88;;;;;;;;;;5048022;23;20071;-89
2023/06/11 11:36:19;;;;;;;5.38;4.35;;;;;;;;;;5096009;22;20061;-91
2023/06/11 11:39:11;;;;;;;6.20;4.13;;;32.70;51.90;;;;;;5029407;28;20041;-91
2023/06/11 11:41:56;;;;;;;8.65;3.92;;;;;;;;;;5026792;28;20032;-91
2023/06/11 11:45:00;;;;;;;5.78;3.95;;;;;;;;;;5063671;23;20069;-92
2023/06/11 11:47:50;;;;;;;6.32;3.83;;;;;;;;;;5171526;23;20065;-93
2023/06/11 11:50:40;;;;;;;6.35;3.67;;;;;;;;;;5010540;28;20065;-94
2023/06/11 11:53:29;;;;;;;8.27;4.03;;;;;;;;;;5001550;28;20177;-93
2023/06/11 11:56:13;;;;;;;5.07;4.00;;;;;;;;;;4993704;28;20037;-94
2023/06/11 11:58:58;;;;;;;6.32;4.40;;;;;;;;;;4967881;28;20502;-94
2023/06/11 12:01:54;;;;;;;7.43;3.85;;;;;;;;;;4977814;28;20057;-94
2023/06/11 12:04:39;;;;;;;6.38;4.00;;;;;;;;;;4993201;28;20038;-92
2023/06/11 12:07:26;;;;;;;5.97;4.40;;;;;;;;;;4994667;28;20041;-95
2023/06/11 12:10:14;;;;;;;7.40;4.10;;;;;;;;;;4987628;28;20137;-95
2023/06/11 12:13:02;;;;;;;5.47;4.03;;;;;;;;;;4990934;28;20037;-89
2023/06/11 12:15:46;;;;;;;8.38;4.20;;;;;;;;;;4996778;28;20040;-95
2023/06/11 12:18:32;;;;;;;6.38;4.13;;;;;;;;;;4988759;28;20417;-92
2023/06/11 12:21:19;;;;;;;4.40;4.00;;;;;;;;;;4966291;28;20106;-92
2023/06/11 12:24:04;;;;;;;5.93;4.15;;;;;;;;;;4994470;28;20205;-95
2023/06/11 12:26:49;;;;;;;7.53;4.10;;;;;;;;;;4985620;28;20037;-93
2023/06/11 12:29:36;;;;;;;6.38;3.75;;;;;;;;;;4985723;28;20113;-93
2023/06/11 12:32:29;;;;;;;6.25;3.95;;;;;;;;;;4993989;28;20093;-92
2023/06/11 12:35:17;;;;;;;5.55;4.00;;;;;;;;;;4988946;28;20084;-94
2023/06/11 12:38:01;;;;;;;6.22;4.28;;;;;;;;;;4989382;28;20041;-95
2023/06/11 12:40:46;;;;;;;6.40;4.25;;;;;;;;;;4990124;28;20073;-94
2023/06/11 12:43:31;;;;;;;5.35;4.32;;;;;;;;;;4992135;28;20561;-94
2023/06/11 12:46:15;;;;;;;8.13;4.05;;;;;;;;;;4993677;28;20117;-96
2023/06/11 12:49:00;;;;;;;5.78;3.95;;;;;;;;;;4997197;28;20054;-92
2023/06/11 12:51:46;;;;;;;7.57;4.30;;;;;;;;;;4995392;28;20192;-93
2023/06/11 12:54:34;;;;;;;6.97;4.30;;;;;;;;;;4990841;28;20096;-95
2023/06/11 12:57:21;;;;;;;6.53;4.15;;;;;;;;;;5001139;28;20049;-95
2023/06/11 13:00:14;;;;;;;7.82;4.35;;;;;;;;;;4998759;28;20061;-95
2023/06/11 13:03:01;;;;;;;7.00;4.55;;;;;;;;;;4986617;28;20081;-96
2023/06/11 13:05:48;;;;;;;6.35;4.85;;;;;;;;;;4981728;28;20041;-95
2023/06/11 13:08:38;;;;;;;7.40;4.35;;;;;;;;;;4992455;28;20058;-93
2023/06/11 13:11:23;;;;;;;7.80;3.88;;;;;;;;;;5001134;28;20045;-94
2023/06/11 13:14:08;;;;;;;6.50;4.10;;;;;;;;;;4987489;28;20073;-93
2023/06/11 13:16:58;;;;;;;8.20;3.70;;;;;;;;;;4984389;28;20033;-95
2023/06/11 13:19:49;;;;;;;7.80;4.68;;;;;;;;;;4986394;28;20064;-94
2023/06/11 13:22:55;;;;;;;6.85;4.30;;;;;;;;;;4995266;28;20072;-95
2023/06/11 13:25:44;;;;;;;6.45;4.70;;;;;;;;;;4985524;28;20084;-94
2023/06/11 13:28:41;;;;;;;5.85;4.15;;;;;;;;;;4991097;28;20061;-94
2023/06/11 13:31:31;;;;;;;8.00;4.25;;;;;;;;;;4985082;28;20627;-95
2023/06/11 13:34:18;;;;;;;5.53;4.18;;;;;;;;;;4985994;28;20094;-94
2023/06/11 13:37:09;;;;;;;5.30;4.43;;;;;;;;;;5001033;28;20072;-94
2023/06/11 13:39:56;;;;;;;6.35;4.72;;;;;;;;;;5000256;28;20049;-92
2023/06/11 13:42:44;;;;;;;7.97;4.45;;;;;;;;;;4983909;28;20065;-95
2023/06/11 13:45:29;;;;;;;6.25;4.15;;;;;;;;;;4970561;28;20053;-96
2023/06/11 13:48:18;;;;;;;6.15;4.47;;;;;;;;;;4984284;28;20399;-96
2023/06/11 13:51:03;;;;;;;7.32;4.72;;;;;;;;;;4996579;28;20103;-95
2023/06/11 13:53:48;;;;;;;5.43;4.30;;;;;;;;;;4997711;28;20034;-94
2023/06/11 13:56:36;;;;;;;9.23;4.40;;;;;;;;;;4970346;28;20042;-93
2023/06/11 13:59:31;;;;;;;6.15;4.45;;;;;;;;;;5002652;28;20045;-95
2023/06/11 14:02:19;;;;;;;5.10;4.15;;;;;;;;;;5003542;28;20096;-95
2023/06/11 14:05:09;;;;;;;8.00;4.82;;;;;;;;;;4979322;28;20100;-94
2023/06/11 14:08:07;;;;;;;10.80;4.05;;;;;;;;;;4986761;28;20059;-94
2023/06/11 14:10:56;;;;;;;7.13;4.85;;;;;;;;;;5005205;28;20073;-93
2023/06/11 14:13:51;;;;;;;;;;;;;;;;;;;;;
2023/06/11 14:16:46;;;;;;;;;;;;;;;;;;;;;
2023/06/11 14:19:40;;;;;;;4.93;4.22;;;;;;;;;;5001759;28;20102;-95
2023/06/11 14:22:48;;;;;;;7.53;4.78;;;;;;;;;;4965973;28;20065;-95
2023/06/11 14:25:39;;;;;;;6.97;4.80;;;;;;;;;;4999246;28;20102;-94
2023/06/11 14:28:29;;;;;;;6.22;4.82;;;;;;;;;;5001709;28;20041;-95
2023/06/11 14:31:32;;;;;;;8.82;4.28;;;;;;;;;;4974141;28;20097;-93
2023/06/11 14:34:22;;;;;;;5.22;3.83;;;;;;;;;;4986643;28;20161;-96
2023/06/11 14:37:09;;;;;;;8.73;4.85;;;;;;;;;;4975177;28;20061;-95
2023/06/11 14:39:54;;;;;;;9.77;4.80;;;;;;;;;;4999073;28;20076;-96
2023/06/11 14:42:40;;;;;;;8.00;4.35;;;;;;;;;;4985420;28;20045;-93
2023/06/11 14:45:44;;;;;;;;;;;;;;;;;;;;;
2023/06/11 14:48:22;;;;;;;6.45;4.63;;;;;;;;;;5036041;23;20080;-95
2023/06/11 14:51:07;;;;;;;6.15;4.85;;;;;;;;;;5007644;28;20045;-95
2023/06/11 14:53:54;;;;;;;7.07;4.90;;;;;;;;;;4997319;28;20057;-96
2023/06/11 14:56:39;;;;;;;6.50;4.50;;;;;;;;;;5006183;28;20049;-94
2023/06/11 14:59:26;;;;;;;6.55;4.53;;;;;;;;;;5006175;28;20037;-93
2023/06/11 15:02:14;;;;;;;7.72;4.47;;;;;;;;;;4991960;28;20045;-92
2023/06/11 15:05:16;;;;;;;7.35;4.90;;;;;;;;;;5021635;28;20041;-94
2023/06/11 15:08:03;;;;;;;8.63;4.83;;;;;;;;;;5006029;28;20037;-94
2023/06/11 15:10:48;;;;;;;6.80;4.82;;;;;;;;;;4999974;28;20060;-96
2023/06/11 15:13:33;;;;;;;8.07;5.00;;;;;;;;;;5004463;28;20037;-96
2023/06/11 15:16:20;;;;;;;7.38;4.68;;;;;;;;;;5003249;28;20093;-91
2023/06/11 15:19:07;;;;;;;6.82;4.47;;;;;;;;;;4991813;28;20119;-94
2023/06/11 15:22:05;;;;;;;6.80;4.43;;;;;;;;;;5016814;28;20092;-94
2023/06/11 15:25:02;;;;;;;7.07;5.00;;;;;;;;;;5001107;28;20076;-96
2023/06/11 15:27:50;;;;;;;5.95;4.60;;;;;;;;;;5021609;28;20441;-92
2023/06/11 15:30:34;;;;;;;9.73;4.88;;;;;;;;;;5006722;28;20037;-94
2023/06/11 15:33:21;;;;;;;5.38;4.70;;;;;;;;;;5008542;28;20092;-91
2023/06/11 15:36:08;;;;;;;9.70;4.90;;;;;;;;;;4991461;28;20045;-92
2023/06/11 15:39:12;;;;;;;8.75;5.55;;;;;;;;;;5009237;28;20061;-96
2023/06/11 15:42:16;;;;;;;;;;;;;;;;;;;;;
2023/06/11 15:45:02;;;;;;;7.82;5.25;;;;;;;;;;4996962;28;20068;-94
2023/06/11 15:47:49;;;;;;;7.80;5.55;;;;;;;;;;4974057;28;20066;-94
2023/06/11 15:50:37;;;;;;;8.13;5.93;;;;;;;;;;4988787;28;20053;-95
2023/06/11 15:53:39;;;;;;;6.95;5.00;;;;;;;;;;5008018;28;20069;-93
2023/06/11 15:56:24;;;;;;;7.65;4.50;;;;;;;;;;4984019;28;20057;-93
2023/06/11 15:59:14;;;;;;;7.13;5.07;;;;;;;;;;5007347;28;20057;-94
2023/06/11 16:02:17;;;;;;;6.88;5.00;;;;;;;;;;4987288;28;20042;-91
2023/06/11 16:05:02;;;;;;;7.22;5.10;;;;;;;;;;4982576;28;20046;-94
2023/06/11 16:07:57;;;;;;;7.68;4.80;;;;;;;;;;4971776;28;20065;-96
2023/06/11 16:10:44;;;;;;;7.07;4.80;;;;;;;;;;4995245;28;20040;-96
2023/06/11 16:13:29;;;;;;;6.20;4.82;;;;;;;;;;4973170;28;20065;-95
2023/06/11 16:16:14;;;;;;;6.38;4.88;;;;;;;;;;4972245;28;20097;-96
2023/06/11 16:19:06;;;;;;;8.85;5.32;;;;;;;;;;4985058;28;20054;-94
2023/06/11 16:21:51;;;;;;;5.68;4.40;;;;;;;;;;4979948;28;20510;-95
2023/06/11 16:25:00;;;;;;;7.82;5.13;;;;;;;;;;4993342;28;20052;-94
2023/06/11 16:27:48;;;;;;;8.35;5.53;;;;;;;;;;4965984;28;20058;-91
2023/06/11 16:30:33;;;;;;;7.50;4.97;;;;;;;;;;4970518;28;20045;-94
2023/06/11 16:33:20;;;;;;;8.90;4.82;;;;;;;;;;4985230;28;20081;-94
2023/06/11 16:36:19;;;;;;;11.40;5.57;;;;;;;;;;4971829;28;20061;-95
2023/06/11 16:39:05;;;;;;;10.65;5.72;;;;;;;;;;4987387;28;20038;-94
2023/06/11 16:41:52;;;;;;;9.73;5.40;;;;;;;;;;4987198;28;20077;-94
2023/06/11 16:44:37;;;;;;;8.90;4.85;;;;;;;;;;4988200;28;20045;-94